Port Wentworth, Georgia
Current Conditions -  °F | °C
As of 5:53 AM on Friday 28 Nov 2014 (Local Time) from KSAV Reporting Station
Clear Clear  
Wind Chill: 30°   Ceiling: Unl
Heat Index: 36°   Visibility: 10mi
Dew Point: 28°   Wind: 7mph
Humidity: 73%   Direction: 340°NNW
Pressure: 30.35"   Gusts: NA
Location:  32.1492°N, 81.1685°W
Report Text: KSAV 281053Z 34006KT 10SM CLR 02/M02 A3035 RMK AO2 SLP279 FIRST AUGMENTED OBSERVATION T00221022
Loading
Personal Weather Stations






























Interactive Weather Map New forecast layout! Learn more

10-Day Weather Forecast

Advertisements
Track Severe Weather on mobile